Sardinia Vera — IBWV — position and weather

sailwx.info

Track history (hours):
 
Tides and Currents Weather Stations Pressure Air Temp Water Temp Dewpoint Dewpoint Depression Visibility Wind Speed Wind Dir Waves Ship Positions

Sardinia Vera

Last reported at 2014-Jul-22 08:33 UTC. Time now 2014-Jul-22 23:11 UTC.
Position N 43°16' E 010°07'.

; draft 5.2 m.

Type: Passenger vessel. MMSI: 247392000.

Date/timePositionNaut miles runAvg speedWind from/ knotsBaromVisibWave heightAir tempDewpointWater temp
2014-Jul-22 08:33N 43°16' E 010°07'1716.6
2014-Jul-22 07:32N 43°32' E 010°15'3 2.7
2014-Jul-22 06:34N 43°33' E 010°18'0 0.0
2014-Jul-22 05:33N 43°33' E 010°18'7 6.6
2014-Jul-22 04:34N 43°28' E 010°12'1717.3
2014-Jul-22 03:34N 43°12' E 010°04'2 0.1
2014-Jul-21 08:33N 43°13' E 010°04'1716.6
2014-Jul-21 07:33N 43°29' E 010°12'6 6.2
2014-Jul-21 06:33N 43°33' E 010°18'0 0.0
2014-Jul-21 05:33N 43°33' E 010°18'3 3.4
2014-Jul-21 04:33N 43°31' E 010°15'1515.0
2014-Jul-21 03:33N 43°17' E 010°08'1712.8
2014-Jul-21 02:13N 42°60' E 010°03'123 8.2
2014-Jul-20 11:20N 40°59' E 009°36'6 1.0
2014-Jul-20 05:31N 41°03' E 009°42'5317.1
2014-Jul-20 02:23N 41°56' E 009°50'1417.3
2014-Jul-20 01:33N 42°10' E 009°53'1717.0
2014-Jul-20 00:33N 42°27' E 009°56'2317.2
2014-Jul-19 23:14N 42°50' E 009°60'1217.5
2014-Jul-19 22:33N 43°01' E 010°03'1716.6
2014-Jul-19 21:33N 43°17' E 010°09'1313.0
2014-Jul-19 20:33N 43°30' E 010°13'5 4.5
2014-Jul-19 19:31N 43°33' E 010°18'0 0.0
2014-Jul-19 17:24N 43°33' E 010°18'0 0.0
2014-Jul-19 16:17N 43°33' E 010°18'0 0.0
2014-Jul-19 15:33N 43°33' E 010°18'1010.4
2014-Jul-19 14:33N 43°25' E 010°08'1817.8
2014-Jul-19 13:33N 43°13' E 009°51'1717.4
2014-Jul-19 12:33N 42°59' E 009°38'12 4.0
2014-Jul-19 09:33N 42°47' E 009°36'1917.7
2014-Jul-19 08:30N 42°59' E 009°55'1717.7
2014-Jul-19 07:33N 43°14' E 010°05'1817.8
2014-Jul-19 06:34N 43°31' E 010°13'4 4.4
2014-Jul-19 05:33N 43°33' E 010°18'0 0.0
2014-Jul-19 04:33N 43°33' E 010°18'7 6.9
2014-Jul-19 03:33N 43°27' E 010°13'1716.8
2014-Jul-19 02:33N 43°12' E 010°05'1716.8
2014-Jul-19 01:33N 42°56' E 009°56'1717.1
2014-Jul-19 00:33N 42°39' E 009°58'1717.4
2014-Jul-18 23:33N 42°22' E 009°55'1817.4
2014-Jul-18 22:33N 42°05' E 009°52'17 1.6
2014-Jul-18 11:33N 42°22' E 009°54'1816.9
2014-Jul-18 10:28N 42°40' E 009°58'1517.0
2014-Jul-18 09:33N 42°55' E 010°02'1717.3
2014-Jul-18 08:33N 43°12' E 010°08'1817.7
2014-Jul-18 07:33N 43°29' E 010°13'6 5.5
2014-Jul-18 06:33N 43°33' E 010°18'0 0.0
2014-Jul-18 05:33N 43°33' E 010°18'2 2.3
2014-Jul-18 04:33N 43°31' E 010°16'1616.2
2014-Jul-18 03:33N 43°17' E 010°06'1716.8
2014-Jul-18 02:33N 43°01' E 009°58'1717.1
2014-Jul-18 01:33N 42°44' E 009°58'1717.0
2014-Jul-18 00:33N 42°27' E 009°56'30 2.0
2014-Jul-17 09:33N 42°57' E 010°02'1717.0
2014-Jul-17 08:33N 43°13' E 010°08'1817.7
2014-Jul-17 07:33N 43°31' E 010°13'4 4.1
2014-Jul-17 06:33N 43°33' E 010°18'0 0.0
2014-Jul-17 05:34N 43°33' E 010°18'3 3.2
2014-Jul-17 04:33N 43°31' E 010°15'1616.4
2014-Jul-17 03:33N 43°15' E 010°08'1716.9
2014-Jul-17 02:33N 42°59' E 010°04'1817.0
2014-Jul-17 01:30N 42°41' E 009°59'3317.1
2014-Jul-16 23:33N 42°08' E 009°52'3 0.2
2014-Jul-16 12:11N 42°11' E 009°53'1117.7
2014-Jul-16 11:33N 42°22' E 009°55'2518.0
2014-Jul-16 10:11N 42°46' E 009°59'1118.1
2014-Jul-16 09:33N 42°57' E 010°03'1818.3
2014-Jul-16 08:34N 43°15' E 010°09'1817.0
2014-Jul-16 07:32N 43°32' E 010°15'3 2.6
2014-Jul-16 06:33N 43°33' E 010°18'0 0.0
2014-Jul-16 05:33N 43°33' E 010°18'3 3.1
2014-Jul-16 04:33N 43°31' E 010°15'1717.2
2014-Jul-16 03:33N 43°14' E 010°09'1717.3
2014-Jul-16 02:33N 42°58' E 010°01'1817.6
2014-Jul-16 01:33N 42°41' E 009°57'1717.4
2014-Jul-16 00:33N 42°23' E 009°55'1717.3
2014-Jul-15 23:33N 42°06' E 009°51'20 1.7
2014-Jul-15 11:32N 42°26' E 009°55'3918.0
2014-Jul-15 09:23N 43°04' E 010°05'1518.2
2014-Jul-15 08:34N 43°18' E 010°10'1515.2
2014-Jul-15 07:34N 43°32' E 010°17'1 0.8
2014-Jul-15 06:34N 43°33' E 010°18'0 0.0
2014-Jul-15 05:34N 43°33' E 010°18'0 0.0
2014-Jul-15 04:34N 43°33' E 010°18'1313.0
2014-Jul-15 03:34N 43°21' E 010°11'1616.3
2014-Jul-15 02:33N 43°06' E 010°03'29 1.4
2014-Jul-14 05:03N 43°33' E 010°18'4 8.7
2014-Jul-14 04:33N 43°30' E 010°14'1717.5
2014-Jul-14 03:33N 43°17' E 009°57'6 0.2
2014-Jul-12 21:33N 43°14' E 010°05'1717.5
2014-Jul-12 20:33N 43°31' E 010°13'5 4.5
2014-Jul-12 19:33N 43°33' E 010°18'0 0.0
2014-Jul-12 18:33N 43°33' E 010°18'0 0.0
2014-Jul-12 17:33N 43°33' E 010°18'0 0.0
2014-Jul-12 16:33N 43°33' E 010°18'3 2.5
2014-Jul-12 15:33N 43°31' E 010°16'7 7.2
2014-Jul-12 14:33N 43°26' E 010°09'1818.2
2014-Jul-12 13:33N 43°13' E 009°51'  
Track history (hours):
 
Tides and Currents Weather Stations Pressure Air Temp Water Temp Dewpoint Dewpoint Depression Visibility Wind Speed Wind Dir Waves Ship Positions

Sardinia Vera

Last reported at 2014-Jul-22 08:33 UTC. Time now 2014-Jul-22 23:11 UTC.
Position N 43°16' E 010°07'.

; draft 5.2 m.

Type: Passenger vessel. MMSI: 247392000.

Date/timePositionNaut miles runAvg speedWind from/ knotsBaromVisibWave heightAir tempDewpointWater temp
2014-Jul-22 08:33N 43°16' E 010°07'1716.6
2014-Jul-22 07:32N 43°32' E 010°15'3 2.7
2014-Jul-22 06:34N 43°33' E 010°18'0 0.0
2014-Jul-22 05:33N 43°33' E 010°18'7 6.6
2014-Jul-22 04:34N 43°28' E 010°12'1717.3
2014-Jul-22 03:34N 43°12' E 010°04'2 0.1
2014-Jul-21 08:33N 43°13' E 010°04'1716.6
2014-Jul-21 07:33N 43°29' E 010°12'6 6.2
2014-Jul-21 06:33N 43°33' E 010°18'0 0.0
2014-Jul-21 05:33N 43°33' E 010°18'3 3.4
2014-Jul-21 04:33N 43°31' E 010°15'1515.0
2014-Jul-21 03:33N 43°17' E 010°08'1712.8
2014-Jul-21 02:13N 42°60' E 010°03'123 8.2
2014-Jul-20 11:20N 40°59' E 009°36'6 1.0
2014-Jul-20 05:31N 41°03' E 009°42'5317.1
2014-Jul-20 02:23N 41°56' E 009°50'1417.3
2014-Jul-20 01:33N 42°10' E 009°53'1717.0
2014-Jul-20 00:33N 42°27' E 009°56'2317.2
2014-Jul-19 23:14N 42°50' E 009°60'1217.5
2014-Jul-19 22:33N 43°01' E 010°03'1716.6
2014-Jul-19 21:33N 43°17' E 010°09'1313.0
2014-Jul-19 20:33N 43°30' E 010°13'5 4.5
2014-Jul-19 19:31N 43°33' E 010°18'0 0.0
2014-Jul-19 17:24N 43°33' E 010°18'0 0.0
2014-Jul-19 16:17N 43°33' E 010°18'0 0.0
2014-Jul-19 15:33N 43°33' E 010°18'1010.4
2014-Jul-19 14:33N 43°25' E 010°08'1817.8
2014-Jul-19 13:33N 43°13' E 009°51'1717.4
2014-Jul-19 12:33N 42°59' E 009°38'12 4.0
2014-Jul-19 09:33N 42°47' E 009°36'1917.7
2014-Jul-19 08:30N 42°59' E 009°55'1717.7
2014-Jul-19 07:33N 43°14' E 010°05'1817.8
2014-Jul-19 06:34N 43°31' E 010°13'4 4.4
2014-Jul-19 05:33N 43°33' E 010°18'0 0.0
2014-Jul-19 04:33N 43°33' E 010°18'7 6.9
2014-Jul-19 03:33N 43°27' E 010°13'1716.8
2014-Jul-19 02:33N 43°12' E 010°05'1716.8
2014-Jul-19 01:33N 42°56' E 009°56'1717.1
2014-Jul-19 00:33N 42°39' E 009°58'1717.4
2014-Jul-18 23:33N 42°22' E 009°55'1817.4
2014-Jul-18 22:33N 42°05' E 009°52'17 1.6
2014-Jul-18 11:33N 42°22' E 009°54'1816.9
2014-Jul-18 10:28N 42°40' E 009°58'1517.0
2014-Jul-18 09:33N 42°55' E 010°02'1717.3
2014-Jul-18 08:33N 43°12' E 010°08'1817.7
2014-Jul-18 07:33N 43°29' E 010°13'6 5.5
2014-Jul-18 06:33N 43°33' E 010°18'0 0.0
2014-Jul-18 05:33N 43°33' E 010°18'2 2.3
2014-Jul-18 04:33N 43°31' E 010°16'1616.2
2014-Jul-18 03:33N 43°17' E 010°06'1716.8
2014-Jul-18 02:33N 43°01' E 009°58'1717.1
2014-Jul-18 01:33N 42°44' E 009°58'1717.0
2014-Jul-18 00:33N 42°27' E 009°56'30 2.0
2014-Jul-17 09:33N 42°57' E 010°02'1717.0
2014-Jul-17 08:33N 43°13' E 010°08'1817.7
2014-Jul-17 07:33N 43°31' E 010°13'4 4.1
2014-Jul-17 06:33N 43°33' E 010°18'0 0.0
2014-Jul-17 05:34N 43°33' E 010°18'3 3.2
2014-Jul-17 04:33N 43°31' E 010°15'1616.4
2014-Jul-17 03:33N 43°15' E 010°08'1716.9
2014-Jul-17 02:33N 42°59' E 010°04'1817.0
2014-Jul-17 01:30N 42°41' E 009°59'3317.1
2014-Jul-16 23:33N 42°08' E 009°52'3 0.2
2014-Jul-16 12:11N 42°11' E 009°53'1117.7
2014-Jul-16 11:33N 42°22' E 009°55'2518.0
2014-Jul-16 10:11N 42°46' E 009°59'1118.1
2014-Jul-16 09:33N 42°57' E 010°03'1818.3
2014-Jul-16 08:34N 43°15' E 010°09'1817.0
2014-Jul-16 07:32N 43°32' E 010°15'3 2.6
2014-Jul-16 06:33N 43°33' E 010°18'0 0.0
2014-Jul-16 05:33N 43°33' E 010°18'3 3.1
2014-Jul-16 04:33N 43°31' E 010°15'1717.2
2014-Jul-16 03:33N 43°14' E 010°09'1717.3
2014-Jul-16 02:33N 42°58' E 010°01'1817.6
2014-Jul-16 01:33N 42°41' E 009°57'1717.4
2014-Jul-16 00:33N 42°23' E 009°55'1717.3
2014-Jul-15 23:33N 42°06' E 009°51'20 1.7
2014-Jul-15 11:32N 42°26' E 009°55'3918.0
2014-Jul-15 09:23N 43°04' E 010°05'1518.2
2014-Jul-15 08:34N 43°18' E 010°10'1515.2
2014-Jul-15 07:34N 43°32' E 010°17'1 0.8
2014-Jul-15 06:34N 43°33' E 010°18'0 0.0
2014-Jul-15 05:34N 43°33' E 010°18'0 0.0
2014-Jul-15 04:34N 43°33' E 010°18'1313.0
2014-Jul-15 03:34N 43°21' E 010°11'1616.3
2014-Jul-15 02:33N 43°06' E 010°03'29 1.4
2014-Jul-14 05:03N 43°33' E 010°18'4 8.7
2014-Jul-14 04:33N 43°30' E 010°14'1717.5
2014-Jul-14 03:33N 43°17' E 009°57'6 0.2
2014-Jul-12 21:33N 43°14' E 010°05'1717.5
2014-Jul-12 20:33N 43°31' E 010°13'5 4.5
2014-Jul-12 19:33N 43°33' E 010°18'0 0.0
2014-Jul-12 18:33N 43°33' E 010°18'0 0.0
2014-Jul-12 17:33N 43°33' E 010°18'0 0.0
2014-Jul-12 16:33N 43°33' E 010°18'3 2.5
2014-Jul-12 15:33N 43°31' E 010°16'7 7.2
2014-Jul-12 14:33N 43°26' E 010°09'1818.2
2014-Jul-12 13:33N 43°13' E 009°51'  

Dump ship's entire track history